sensor_id;sensor_type;location;lat;lon;timestamp;pressure;altitude;pressure_sealevel;temperature;humidity
18755;BME280;35061;47.664;9.166;2023-05-16T00:00:15;101232.77;;;11.84;95.39
18755;BME280;35061;47.664;9.166;2023-05-16T00:02:43;101239.02;;;11.82;95.39
18755;BME280;35061;47.664;9.166;2023-05-16T00:05:11;101229.14;;;11.83;95.50
18755;BME280;35061;47.664;9.166;2023-05-16T00:07:42;101228.12;;;11.86;95.50
18755;BME280;35061;47.664;9.166;2023-05-16T00:10:11;101239.14;;;11.88;95.57
18755;BME280;35061;47.664;9.166;2023-05-16T00:12:39;101242.28;;;11.90;95.56
18755;BME280;35061;47.664;9.166;2023-05-16T00:15:09;101245.45;;;11.92;95.31
18755;BME280;35061;47.664;9.166;2023-05-16T00:17:39;101232.90;;;11.90;95.39
18755;BME280;35061;47.664;9.166;2023-05-16T00:20:08;101243.10;;;11.91;95.29
18755;BME280;35061;47.664;9.166;2023-05-16T00:22:41;101237.84;;;11.89;95.26
18755;BME280;35061;47.664;9.166;2023-05-16T00:25:08;101239.90;;;11.89;95.29
18755;BME280;35061;47.664;9.166;2023-05-16T00:27:37;101228.42;;;11.89;95.21
18755;BME280;35061;47.664;9.166;2023-05-16T00:30:05;101226.06;;;11.87;95.22
18755;BME280;35061;47.664;9.166;2023-05-16T00:32:35;101224.30;;;11.90;95.10
18755;BME280;35061;47.664;9.166;2023-05-16T00:35:03;101224.79;;;11.88;95.17
18755;BME280;35061;47.664;9.166;2023-05-16T00:37:31;101229.73;;;11.87;95.30
18755;BME280;35061;47.664;9.166;2023-05-16T00:39:59;101227.96;;;11.90;95.21
18755;BME280;35061;47.664;9.166;2023-05-16T00:42:27;101222.20;;;11.90;95.24
18755;BME280;35061;47.664;9.166;2023-05-16T00:44:55;101224.30;;;11.90;95.18
18755;BME280;35061;47.664;9.166;2023-05-16T00:47:23;101227.96;;;11.90;95.18
18755;BME280;35061;47.664;9.166;2023-05-16T00:49:51;101214.39;;;11.91;95.18
18755;BME280;35061;47.664;9.166;2023-05-16T00:52:19;101221.42;;;11.90;95.30
18755;BME280;35061;47.664;9.166;2023-05-16T00:54:47;101221.09;;;11.87;95.22
18755;BME280;35061;47.664;9.166;2023-05-16T00:57:15;101217.95;;;11.85;95.10
18755;BME280;35061;47.664;9.166;2023-05-16T00:59:45;101208.57;;;11.85;94.95
18755;BME280;35061;47.664;9.166;2023-05-16T01:02:13;101218.94;;;11.82;95.05
18755;BME280;35061;47.664;9.166;2023-05-16T01:04:45;101211.61;;;11.81;95.05
18755;BME280;35061;47.664;9.166;2023-05-16T01:07:14;101208.44;;;11.79;94.95
18755;BME280;35061;47.664;9.166;2023-05-16T01:09:42;101211.80;;;11.78;94.92
18755;BME280;35061;47.664;9.166;2023-05-16T01:26:18;101202.29;;;11.71;94.70
18755;BME280;35061;47.664;9.166;2023-05-16T01:28:47;101200.43;;;11.68;95.25
18755;BME280;35061;47.664;9.166;2023-05-16T01:31:16;101200.88;;;11.67;95.03
18755;BME280;35061;47.664;9.166;2023-05-16T01:33:44;101201.12;;;11.63;95.69
18755;BME280;35061;47.664;9.166;2023-05-16T01:36:20;101200.30;;;11.63;95.30
18755;BME280;35061;47.664;9.166;2023-05-16T01:42:02;101197.75;;;11.65;95.31
18755;BME280;35061;47.664;9.166;2023-05-16T01:44:40;101195.36;;;11.63;95.52
18755;BME280;35061;47.664;9.166;2023-05-16T01:47:15;101200.30;;;11.63;95.48
18755;BME280;35061;47.664;9.166;2023-05-16T01:52:46;101200.98;;;11.57;95.88
18755;BME280;35061;47.664;9.166;2023-05-16T01:58:15;101202.48;;;11.53;96.58
18755;BME280;35061;47.664;9.166;2023-05-16T02:00:44;101195.13;;;11.52;96.35
18755;BME280;35061;47.664;9.166;2023-05-16T02:03:12;101192.58;;;11.54;96.26
18755;BME280;35061;47.664;9.166;2023-05-16T02:05:40;101194.15;;;11.55;96.27
18755;BME280;35061;47.664;9.166;2023-05-16T02:08:08;101195.23;;;11.57;96.43
18755;BME280;35061;47.664;9.166;2023-05-16T02:10:36;101192.19;;;11.61;96.44
18755;BME280;35061;47.664;9.166;2023-05-16T02:13:06;101188.82;;;11.63;96.40
18755;BME280;35061;47.664;9.166;2023-05-16T02:15:34;101187.84;;;11.66;96.43
18755;BME280;35061;47.664;9.166;2023-05-16T02:18:02;101180.80;;;11.67;96.41
18755;BME280;35061;47.664;9.166;2023-05-16T02:20:30;101186.89;;;11.69;96.37
18755;BME280;35061;47.664;9.166;2023-05-16T02:22:58;101186.89;;;11.69;96.35
18755;BME280;35061;47.664;9.166;2023-05-16T02:25:26;101179.23;;;11.66;96.29
18755;BME280;35061;47.664;9.166;2023-05-16T02:27:54;101176.06;;;11.64;96.57
18755;BME280;35061;47.664;9.166;2023-05-16T02:30:23;101171.33;;;11.61;96.57
18755;BME280;35061;47.664;9.166;2023-05-16T02:32:51;101168.16;;;11.58;96.68
18755;BME280;35061;47.664;9.166;2023-05-16T02:35:20;101164.20;;;11.56;96.78
18755;BME280;35061;47.664;9.166;2023-05-16T02:37:49;101164.39;;;11.52;96.94
18755;BME280;35061;47.664;9.166;2023-05-16T02:40:17;101158.64;;;11.52;96.83
18755;BME280;35061;47.664;9.166;2023-05-16T02:42:45;101152.62;;;11.50;96.67
18755;BME280;35061;47.664;9.166;2023-05-16T02:45:13;101155.20;;;11.48;96.73
18755;BME280;35061;47.664;9.166;2023-05-16T02:47:41;101159.36;;;11.47;96.68
18755;BME280;35061;47.664;9.166;2023-05-16T02:50:09;101162.49;;;11.49;96.59
18755;BME280;35061;47.664;9.166;2023-05-16T02:52:37;101165.37;;;11.49;96.55
18755;BME280;35061;47.664;9.166;2023-05-16T02:55:05;101163.28;;;11.50;96.34
18755;BME280;35061;47.664;9.166;2023-05-16T02:57:47;101171.09;;;11.49;96.14
18755;BME280;35061;47.664;9.166;2023-05-16T03:00:17;101171.09;;;11.49;96.12
18755;BME280;35061;47.664;9.166;2023-05-16T03:02:45;101161.22;;;11.50;96.09
18755;BME280;35061;47.664;9.166;2023-05-16T03:05:13;101169.82;;;11.50;95.90
18755;BME280;35061;47.664;9.166;2023-05-16T03:07:41;101172.41;;;11.48;95.84
18755;BME280;35061;47.664;9.166;2023-05-16T03:10:09;101177.05;;;11.45;95.64
18755;BME280;35061;47.664;9.166;2023-05-16T03:12:37;101178.52;;;11.41;95.59
18755;BME280;35061;47.664;9.166;2023-05-16T03:15:06;101178.52;;;11.41;95.70
18755;BME280;35061;47.664;9.166;2023-05-16T03:17:35;101174.82;;;11.40;95.76
18755;BME280;35061;47.664;9.166;2023-05-16T03:20:04;101182.97;;;11.42;95.58
18755;BME280;35061;47.664;9.166;2023-05-16T03:22:35;101181.66;;;11.43;95.51
18755;BME280;35061;47.664;9.166;2023-05-16T03:25:04;101173.74;;;11.38;95.41
18755;BME280;35061;47.664;9.166;2023-05-16T03:27:32;101179.96;;;11.36;95.54
18755;BME280;35061;47.664;9.166;2023-05-16T03:29:59;101172.66;;;11.35;95.51
18755;BME280;35061;47.664;9.166;2023-05-16T03:32:27;101168.22;;;11.34;95.60
18755;BME280;35061;47.664;9.166;2023-05-16T03:34:55;101164.42;;;11.28;95.91
18755;BME280;35061;47.664;9.166;2023-05-16T03:37:23;101156.35;;;11.26;96.09
18755;BME280;35061;47.664;9.166;2023-05-16T03:39:52;101158.41;;;11.26;96.09
18755;BME280;35061;47.664;9.166;2023-05-16T03:42:20;101158.87;;;11.24;96.12
18755;BME280;35061;47.664;9.166;2023-05-16T03:44:48;101157.30;;;11.23;96.41
18755;BME280;35061;47.664;9.166;2023-05-16T03:47:16;101153.34;;;11.21;96.42
18755;BME280;35061;47.664;9.166;2023-05-16T03:49:44;101152.06;;;11.22;96.45
18755;BME280;35061;47.664;9.166;2023-05-16T03:52:12;101158.57;;;11.22;96.33
18755;BME280;35061;47.664;9.166;2023-05-16T03:54:40;101158.27;;;11.20;96.39
18755;BME280;35061;47.664;9.166;2023-05-16T03:57:08;101158.27;;;11.20;96.45
18755;BME280;35061;47.664;9.166;2023-05-16T03:59:36;101160.56;;;11.16;96.56
18755;BME280;35061;47.664;9.166;2023-05-16T04:02:05;101165.96;;;11.14;96.92
18755;BME280;35061;47.664;9.166;2023-05-16T04:04:33;101166.78;;;11.14;96.78
18755;BME280;35061;47.664;9.166;2023-05-16T04:07:01;101162.79;;;11.12;96.95
18755;BME280;35061;47.664;9.166;2023-05-16T04:09:29;101158.54;;;11.07;97.19
18755;BME280;35061;47.664;9.166;2023-05-16T04:11:57;101167.92;;;11.08;97.11
18755;BME280;35061;47.664;9.166;2023-05-16T04:14:28;101175.61;;;11.01;97.56
18755;BME280;35061;47.664;9.166;2023-05-16T04:16:56;101170.67;;;11.02;97.35
18755;BME280;35061;47.664;9.166;2023-05-16T04:19:24;101164.13;;;11.01;97.34
18755;BME280;35061;47.664;9.166;2023-05-16T04:21:52;101173.55;;;11.02;97.32
18755;BME280;35061;47.664;9.166;2023-05-16T04:24:20;101174.50;;;10.99;97.82
18755;BME280;35061;47.664;9.166;2023-05-16T04:26:52;101175.02;;;10.97;97.86
18755;BME280;35061;47.664;9.166;2023-05-16T04:29:20;101174.20;;;10.97;98.36
18755;BME280;35061;47.664;9.166;2023-05-16T04:31:48;101177.38;;;10.99;98.47
18755;BME280;35061;47.664;9.166;2023-05-16T04:34:16;101178.98;;;11.00;98.13
18755;BME280;35061;47.664;9.166;2023-05-16T04:36:44;101176.59;;;10.98;98.24
18755;BME280;35061;47.664;9.166;2023-05-16T04:39:12;101185.48;;;11.00;98.41
18755;BME280;35061;47.664;9.166;2023-05-16T04:41:40;101184.38;;;10.98;98.63
18755;BME280;35061;47.664;9.166;2023-05-16T04:44:08;101183.72;;;11.03;98.51
18755;BME280;35061;47.664;9.166;2023-05-16T04:46:37;101193.10;;;11.03;98.57
18755;BME280;35061;47.664;9.166;2023-05-16T04:49:05;101193.92;;;11.04;98.62
18755;BME280;35061;47.664;9.166;2023-05-16T04:51:34;101190.06;;;11.07;98.65
18755;BME280;35061;47.664;9.166;2023-05-16T04:54:02;101201.05;;;11.09;98.58
18755;BME280;35061;47.664;9.166;2023-05-16T04:56:30;101194.31;;;11.12;98.60
18755;BME280;35061;47.664;9.166;2023-05-16T04:58:58;101187.31;;;11.13;98.53
18755;BME280;35061;47.664;9.166;2023-05-16T05:01:26;101190.48;;;11.15;98.49
18755;BME280;35061;47.664;9.166;2023-05-16T05:03:54;101189.02;;;11.20;98.45
18755;BME280;35061;47.664;9.166;2023-05-16T05:06:22;101188.82;;;11.23;98.26
18755;BME280;35061;47.664;9.166;2023-05-16T05:08:50;101190.42;;;11.24;98.08
18755;BME280;35061;47.664;9.166;2023-05-16T05:11:18;101187.87;;;11.26;98.19
18755;BME280;35061;47.664;9.166;2023-05-16T05:13:46;101184.99;;;11.26;98.23
18755;BME280;35061;47.664;9.166;2023-05-16T05:16:17;101188.75;;;11.33;98.19
18755;BME280;35061;47.664;9.166;2023-05-16T05:18:45;101194.31;;;11.36;98.24
18755;BME280;35061;47.664;9.166;2023-05-16T05:21:14;101190.45;;;11.39;98.17
18755;BME280;35061;47.664;9.166;2023-05-16T05:23:42;101203.83;;;11.42;98.00
18755;BME280;35061;47.664;9.166;2023-05-16T05:26:10;101196.93;;;11.49;97.99
18755;BME280;35061;47.664;9.166;2023-05-16T05:28:38;101197.02;;;11.55;97.79
18755;BME280;35061;47.664;9.166;2023-05-16T05:31:10;101198.73;;;11.62;97.58
18755;BME280;35061;47.664;9.166;2023-05-16T05:33:39;101204.29;;;11.65;97.32
18755;BME280;35061;47.664;9.166;2023-05-16T05:36:07;101208.21;;;11.68;96.98
18755;BME280;35061;47.664;9.166;2023-05-16T05:38:35;101199.41;;;11.71;96.57
18755;BME280;35061;47.664;9.166;2023-05-16T05:41:04;101196.37;;;11.75;96.06
18755;BME280;35061;47.664;9.166;2023-05-16T05:43:32;101197.26;;;11.81;95.59
18755;BME280;35061;47.664;9.166;2023-05-16T05:46:00;101198.47;;;11.90;95.18
18755;BME280;35061;47.664;9.166;2023-05-16T05:48:28;101197.78;;;11.95;94.61
18755;BME280;35061;47.664;9.166;2023-05-16T05:50:56;101196.57;;;12.01;94.08
18755;BME280;35061;47.664;9.166;2023-05-16T05:53:24;101201.15;;;12.08;92.99
18755;BME280;35061;47.664;9.166;2023-05-16T05:55:52;101199.67;;;12.13;92.65
18755;BME280;35061;47.664;9.166;2023-05-16T05:58:20;101198.99;;;12.18;91.73
18755;BME280;35061;47.664;9.166;2023-05-16T06:00:48;101194.64;;;12.23;91.69
18755;BME280;35061;47.664;9.166;2023-05-16T06:03:17;101199.97;;;12.30;91.29
18755;BME280;35061;47.664;9.166;2023-05-16T06:05:45;101202.13;;;12.35;90.70
18755;BME280;35061;47.664;9.166;2023-05-16T06:08:13;101194.38;;;12.41;90.22
18755;BME280;35061;47.664;9.166;2023-05-16T06:10:41;101197.06;;;12.45;89.56
18755;BME280;35061;47.664;9.166;2023-05-16T06:13:09;101193.98;;;12.49;89.22
18755;BME280;35061;47.664;9.166;2023-05-16T06:15:37;101201.12;;;12.53;88.52
18755;BME280;35061;47.664;9.166;2023-05-16T06:18:05;101200.92;;;12.57;88.07
18755;BME280;35061;47.664;9.166;2023-05-16T06:20:33;101205.17;;;12.62;87.69
18755;BME280;35061;47.664;9.166;2023-05-16T06:23:01;101204.65;;;12.63;87.37
18755;BME280;35061;47.664;9.166;2023-05-16T06:25:29;101208.90;;;12.68;86.61
18755;BME280;35061;47.664;9.166;2023-05-16T06:27:57;101211.77;;;12.68;86.55
18755;BME280;35061;47.664;9.166;2023-05-16T06:30:25;101208.41;;;12.69;86.34
18755;BME280;35061;47.664;9.166;2023-05-16T06:32:53;101214.52;;;12.77;86.35
18755;BME280;35061;47.664;9.166;2023-05-16T06:35:21;101212.76;;;12.80;85.99
18755;BME280;35061;47.664;9.166;2023-05-16T06:37:50;101210.44;;;12.84;85.41
18755;BME280;35061;47.664;9.166;2023-05-16T06:40:17;101213.41;;;12.90;85.33
18755;BME280;35061;47.664;9.166;2023-05-16T06:42:45;101215.30;;;12.93;85.19
18755;BME280;35061;47.664;9.166;2023-05-16T06:45:13;101212.79;;;13.01;84.93
18755;BME280;35061;47.664;9.166;2023-05-16T06:47:41;101213.93;;;13.09;84.82
18755;BME280;35061;47.664;9.166;2023-05-16T06:50:09;101211.91;;;13.15;84.33
18755;BME280;35061;47.664;9.166;2023-05-16T06:52:37;101215.96;;;13.23;84.24
18755;BME280;35061;47.664;9.166;2023-05-16T06:55:05;101212.59;;;13.25;84.00
18755;BME280;35061;47.664;9.166;2023-05-16T06:57:33;101214.45;;;13.28;81.90
18755;BME280;35061;47.664;9.166;2023-05-16T07:00:02;101212.85;;;13.27;82.58
18755;BME280;35061;47.664;9.166;2023-05-16T07:02:30;101217.34;;;13.28;82.01
18755;BME280;35061;47.664;9.166;2023-05-16T07:04:58;101214.52;;;13.34;82.40
18755;BME280;35061;47.664;9.166;2023-05-16T07:07:26;101206.87;;;13.46;81.82
18755;BME280;35061;47.664;9.166;2023-05-16T07:09:54;101211.58;;;13.49;81.70
18755;BME280;35061;47.664;9.166;2023-05-16T07:12:22;101205.63;;;13.52;79.08
18755;BME280;35061;47.664;9.166;2023-05-16T07:14:50;101214.81;;;13.57;79.07
18755;BME280;35061;47.664;9.166;2023-05-16T07:17:18;101211.16;;;13.56;78.70
18755;BME280;35061;47.664;9.166;2023-05-16T07:19:46;101195.82;;;13.65;79.89
18755;BME280;35061;47.664;9.166;2023-05-16T07:22:14;101198.04;;;13.76;79.87
18755;BME280;35061;47.664;9.166;2023-05-16T07:24:43;101202.03;;;13.84;79.51
18755;BME280;35061;47.664;9.166;2023-05-16T07:27:11;101205.49;;;13.88;77.88
18755;BME280;35061;47.664;9.166;2023-05-16T07:29:39;101198.99;;;13.93;78.58
18755;BME280;35061;47.664;9.166;2023-05-16T07:32:07;101199.31;;;14.01;78.16
18755;BME280;35061;47.664;9.166;2023-05-16T07:34:36;101208.87;;;14.13;78.03
18755;BME280;35061;47.664;9.166;2023-05-16T07:37:04;101205.53;;;14.20;77.72
18755;BME280;35061;47.664;9.166;2023-05-16T07:39:33;101199.58;;;14.30;77.27
18755;BME280;35061;47.664;9.166;2023-05-16T07:42:01;101210.86;;;14.33;76.52
18755;BME280;35061;47.664;9.166;2023-05-16T07:44:29;101209.62;;;14.40;76.56
18755;BME280;35061;47.664;9.166;2023-05-16T07:46:57;101209.95;;;14.48;76.39
18755;BME280;35061;47.664;9.166;2023-05-16T07:49:26;101207.88;;;14.54;76.02
18755;BME280;35061;47.664;9.166;2023-05-16T07:51:54;101210.30;;;14.61;76.11
18755;BME280;35061;47.664;9.166;2023-05-16T07:54:23;101200.66;;;14.70;75.72
18755;BME280;35061;47.664;9.166;2023-05-16T07:56:51;101212.56;;;14.78;75.24
18755;BME280;35061;47.664;9.166;2023-05-16T07:59:19;101203.93;;;14.84;74.68
18755;BME280;35061;47.664;9.166;2023-05-16T08:01:47;101206.58;;;14.87;73.98
18755;BME280;35061;47.664;9.166;2023-05-16T08:04:15;101204.45;;;14.82;73.51
18755;BME280;35061;47.664;9.166;2023-05-16T08:06:43;101203.93;;;14.84;73.37
18755;BME280;35061;47.664;9.166;2023-05-16T08:09:11;101204.98;;;14.86;73.27
18755;BME280;35061;47.664;9.166;2023-05-16T08:11:39;101211.32;;;14.90;73.12
18755;BME280;35061;47.664;9.166;2023-05-16T08:14:07;101210.50;;;14.90;73.05
18755;BME280;35061;47.664;9.166;2023-05-16T08:16:35;101208.96;;;14.95;72.92
18755;BME280;35061;47.664;9.166;2023-05-16T08:19:04;101209.48;;;14.93;72.80
18755;BME280;35061;47.664;9.166;2023-05-16T08:21:32;101214.98;;;14.91;72.55
18755;BME280;35061;47.664;9.166;2023-05-16T08:24:00;101203.99;;;14.95;72.53
18755;BME280;35061;47.664;9.166;2023-05-16T08:26:28;101206.90;;;15.01;72.18
18755;BME280;35061;47.664;9.166;2023-05-16T08:28:56;101204.77;;;14.96;71.62
18755;BME280;35061;47.664;9.166;2023-05-16T08:31:24;101202.45;;;15.00;71.82
18755;BME280;35061;47.664;9.166;2023-05-16T08:33:52;101205.63;;;15.07;71.98
18755;BME280;35061;47.664;9.166;2023-05-16T08:36:20;101208.27;;;15.11;71.72
18755;BME280;35061;47.664;9.166;2023-05-16T08:38:49;101202.52;;;15.11;71.86
18755;BME280;35061;47.664;9.166;2023-05-16T08:41:17;101203.27;;;15.12;71.32
18755;BME280;35061;47.664;9.166;2023-05-16T08:43:45;101195.42;;;15.12;71.51
18755;BME280;35061;47.664;9.166;2023-05-16T08:46:14;101197.81;;;15.14;71.15
18755;BME280;35061;47.664;9.166;2023-05-16T08:48:44;101196.99;;;15.13;70.96
18755;BME280;35061;47.664;9.166;2023-05-16T08:51:14;101193.85;;;15.11;69.72
18755;BME280;35061;47.664;9.166;2023-05-16T08:53:51;101204.09;;;15.12;70.54
18755;BME280;35061;47.664;9.166;2023-05-16T08:56:21;101203.57;;;15.14;70.07
18755;BME280;35061;47.664;9.166;2023-05-16T08:58:51;101208.80;;;15.15;70.48
18755;BME280;35061;47.664;9.166;2023-05-16T09:01:21;101205.92;;;15.15;70.21
18755;BME280;35061;47.664;9.166;2023-05-16T09:03:51;101200.16;;;15.15;70.10
18755;BME280;35061;47.664;9.166;2023-05-16T09:06:19;101204.88;;;15.18;69.90
18755;BME280;35061;47.664;9.166;2023-05-16T09:08:47;101200.72;;;15.19;69.82
18755;BME280;35061;47.664;9.166;2023-05-16T09:11:16;101198.37;;;15.24;69.80
18755;BME280;35061;47.664;9.166;2023-05-16T09:13:44;101197.09;;;15.30;69.98
18755;BME280;35061;47.664;9.166;2023-05-16T09:16:19;101199.97;;;15.36;70.05
18755;BME280;35061;47.664;9.166;2023-05-16T09:19:03;101198.92;;;15.39;70.00
18755;BME280;35061;47.664;9.166;2023-05-16T09:21:33;101199.48;;;15.38;69.50
18755;BME280;35061;47.664;9.166;2023-05-16T09:24:06;101192.87;;;15.31;69.38
18755;BME280;35061;47.664;9.166;2023-05-16T09:26:36;101191.27;;;15.25;69.55
18755;BME280;35061;47.664;9.166;2023-05-16T09:29:11;101189.18;;;15.19;69.57
18755;BME280;35061;47.664;9.166;2023-05-16T09:31:40;101181.52;;;15.16;69.50
18755;BME280;35061;47.664;9.166;2023-05-16T09:34:08;101185.19;;;15.11;69.74
18755;BME280;35061;47.664;9.166;2023-05-16T09:36:39;101194.61;;;15.06;69.80
18755;BME280;35061;47.664;9.166;2023-05-16T09:39:09;101194.09;;;15.02;69.28
18755;BME280;35061;47.664;9.166;2023-05-16T09:41:38;101203.73;;;14.93;69.51
18755;BME280;35061;47.664;9.166;2023-05-16T09:44:07;101215.73;;;14.86;70.38
18755;BME280;35061;47.664;9.166;2023-05-16T09:46:36;101211.74;;;14.77;71.27
18755;BME280;35061;47.664;9.166;2023-05-16T09:49:05;101216.91;;;14.68;71.94
18755;BME280;35061;47.664;9.166;2023-05-16T09:51:33;101211.61;;;14.60;72.71
18755;BME280;35061;47.664;9.166;2023-05-16T09:54:01;101211.28;;;14.52;73.47
18755;BME280;35061;47.664;9.166;2023-05-16T09:56:29;101221.09;;;14.34;75.27
18755;BME280;35061;47.664;9.166;2023-05-16T09:58:57;101215.86;;;14.06;77.43
18755;BME280;35061;47.664;9.166;2023-05-16T10:01:25;101223.94;;;13.76;80.38
18755;BME280;35061;47.664;9.166;2023-05-16T10:03:53;101221.88;;;13.56;82.57
18755;BME280;35061;47.664;9.166;2023-05-16T10:06:22;101220.48;;;13.30;84.19
18755;BME280;35061;47.664;9.166;2023-05-16T10:08:50;101230.67;;;13.10;86.12
18755;BME280;35061;47.664;9.166;2023-05-16T10:11:18;101219.16;;;12.90;89.02
18755;BME280;35061;47.664;9.166;2023-05-16T10:13:50;101220.11;;;12.66;87.98
18755;BME280;35061;47.664;9.166;2023-05-16T10:16:21;101208.34;;;12.49;89.26
18755;BME280;35061;47.664;9.166;2023-05-16T10:18:51;101214.81;;;12.28;90.15
18755;BME280;35061;47.664;9.166;2023-05-16T10:21:21;101214.85;;;12.13;91.82
18755;BME280;35061;47.664;9.166;2023-05-16T10:23:50;101219.55;;;12.01;92.79
18755;BME280;35061;47.664;9.166;2023-05-16T10:26:21;101215.99;;;11.92;94.08
18755;BME280;35061;47.664;9.166;2023-05-16T10:28:52;101226.06;;;11.87;93.74
18755;BME280;35061;47.664;9.166;2023-05-16T10:31:21;101221.81;;;11.82;94.33
18755;BME280;35061;47.664;9.166;2023-05-16T10:33:51;101219.63;;;11.77;94.44
18755;BME280;35061;47.664;9.166;2023-05-16T10:36:20;101223.48;;;11.74;94.36
18755;BME280;35061;47.664;9.166;2023-05-16T10:38:49;101219.69;;;11.68;94.56
18755;BME280;35061;47.664;9.166;2023-05-16T10:41:18;101223.05;;;11.66;95.10
18755;BME280;35061;47.664;9.166;2023-05-16T10:43:58;101225.41;;;11.68;95.32
18755;BME280;35061;47.664;9.166;2023-05-16T10:46:26;101224.16;;;11.69;95.47
18755;BME280;35061;47.664;9.166;2023-05-16T10:48:57;101226.33;;;11.74;95.95
18755;BME280;35061;47.664;9.166;2023-05-16T10:54:08;101227.18;;;11.90;95.71
18755;BME280;35061;47.664;9.166;2023-05-16T10:56:36;101231.20;;;11.98;95.98
18755;BME280;35061;47.664;9.166;2023-05-16T10:59:22;101229.56;;;12.06;95.56
18755;BME280;35061;47.664;9.166;2023-05-16T11:01:52;101235.22;;;12.16;95.76
18755;BME280;35061;47.664;9.166;2023-05-16T11:04:21;101224.63;;;12.22;94.99
18755;BME280;35061;47.664;9.166;2023-05-16T11:06:51;101224.73;;;12.27;94.58
18755;BME280;35061;47.664;9.166;2023-05-16T11:17:08;101229.07;;;12.38;93.58
18755;BME280;35061;47.664;9.166;2023-05-16T11:24:59;101237.37;;;12.51;92.81
18755;BME280;35061;47.664;9.166;2023-05-16T11:32:35;101247.38;;;12.55;91.32
18755;BME280;35061;47.664;9.166;2023-05-16T11:35:05;101248.46;;;12.58;91.17
18755;BME280;35061;47.664;9.166;2023-05-16T11:37:37;101252.16;;;12.59;90.74
18755;BME280;35061;47.664;9.166;2023-05-16T11:40:10;101247.65;;;12.57;89.58
18755;BME280;35061;47.664;9.166;2023-05-16T11:42:44;101263.12;;;12.60;89.79
18755;BME280;35061;47.664;9.166;2023-05-16T11:45:18;101253.20;;;12.61;89.54
18755;BME280;35061;47.664;9.166;2023-05-16T11:47:47;101262.72;;;12.67;89.14
18755;BME280;35061;47.664;9.166;2023-05-16T11:50:17;101267.17;;;12.68;88.87
18755;BME280;35061;47.664;9.166;2023-05-16T11:52:47;101267.46;;;12.70;88.63
18755;BME280;35061;47.664;9.166;2023-05-16T11:55:16;101263.80;;;12.70;88.07
18755;BME280;35061;47.664;9.166;2023-05-16T11:58:06;101271.62;;;12.69;88.10
18755;BME280;35061;47.664;9.166;2023-05-16T12:00:34;101270.05;;;12.68;88.02
18755;BME280;35061;47.664;9.166;2023-05-16T12:03:03;101274.79;;;12.72;87.74
18755;BME280;35061;47.664;9.166;2023-05-16T12:05:32;101279.04;;;12.76;87.66
18755;BME280;35061;47.664;9.166;2023-05-16T12:08:01;101274.40;;;12.79;87.31
18755;BME280;35061;47.664;9.166;2023-05-16T12:10:31;101268.73;;;12.84;86.73
18755;BME280;35061;47.664;9.166;2023-05-16T12:13:01;101276.42;;;12.93;86.79
18755;BME280;35061;47.664;9.166;2023-05-16T12:15:30;101273.64;;;12.99;86.34
18755;BME280;35061;47.664;9.166;2023-05-16T12:17:58;101270.27;;;13.01;85.19
18755;BME280;35061;47.664;9.166;2023-05-16T12:20:26;101268.77;;;13.05;85.21
18755;BME280;35061;47.664;9.166;2023-05-16T12:22:56;101269.36;;;13.09;84.89
18755;BME280;35061;47.664;9.166;2023-05-16T12:25:29;101263.67;;;13.15;84.91
18755;BME280;35061;47.664;9.166;2023-05-16T12:28:00;101265.86;;;13.20;84.47
18755;BME280;35061;47.664;9.166;2023-05-16T12:30:30;101269.30;;;13.24;83.85
18755;BME280;35061;47.664;9.166;2023-05-16T12:33:09;101273.05;;;13.31;83.96
18755;BME280;35061;47.664;9.166;2023-05-16T12:35:40;101272.34;;;13.36;83.20
18755;BME280;35061;47.664;9.166;2023-05-16T12:38:10;101270.83;;;13.40;82.93
18755;BME280;35061;47.664;9.166;2023-05-16T12:40:41;101273.52;;;13.44;82.67
18755;BME280;35061;47.664;9.166;2023-05-16T12:43:20;101272.83;;;13.49;82.59
18755;BME280;35061;47.664;9.166;2023-05-16T12:45:53;101275.97;;;13.51;81.89
18755;BME280;35061;47.664;9.166;2023-05-16T12:48:22;101276.26;;;13.53;82.00
18755;BME280;35061;47.664;9.166;2023-05-16T12:50:51;101284.40;;;13.55;81.27
18755;BME280;35061;47.664;9.166;2023-05-16T12:53:20;101279.70;;;13.58;81.35
18755;BME280;35061;47.664;9.166;2023-05-16T12:55:48;101278.65;;;13.55;80.40
18755;BME280;35061;47.664;9.166;2023-05-16T12:58:16;101276.26;;;13.53;79.99
18755;BME280;35061;47.664;9.166;2023-05-16T13:00:44;101271.81;;;13.52;80.32
18755;BME280;35061;47.664;9.166;2023-05-16T13:03:12;101275.24;;;13.57;80.49
18755;BME280;35061;47.664;9.166;2023-05-16T13:05:40;101280.51;;;13.58;80.24
18755;BME280;35061;47.664;9.166;2023-05-16T13:08:08;101282.57;;;13.58;79.06
18755;BME280;35061;47.664;9.166;2023-05-16T13:10:36;101281.79;;;13.57;79.04
18755;BME280;35061;47.664;9.166;2023-05-16T13:13:04;101280.09;;;13.65;79.23
18755;BME280;35061;47.664;9.166;2023-05-16T13:15:32;101280.41;;;13.73;79.55
18755;BME280;35061;47.664;9.166;2023-05-16T13:18:00;101280.97;;;13.77;79.13
18755;BME280;35061;47.664;9.166;2023-05-16T13:20:28;101286.52;;;13.81;78.46
18755;BME280;35061;47.664;9.166;2023-05-16T13:22:57;101282.15;;;13.86;78.38
18755;BME280;35061;47.664;9.166;2023-05-16T13:25:25;101281.69;;;13.93;78.18
18755;BME280;35061;47.664;9.166;2023-05-16T13:27:53;101284.63;;;13.99;77.75
18755;BME280;35061;47.664;9.166;2023-05-16T13:30:21;101287.57;;;14.04;77.57
18755;BME280;35061;47.664;9.166;2023-05-16T13:32:49;101284.47;;;14.08;77.50
18755;BME280;35061;47.664;9.166;2023-05-16T13:35:19;101284.76;;;14.10;77.41
18755;BME280;35061;47.664;9.166;2023-05-16T13:37:47;101284.76;;;14.10;77.15
18755;BME280;35061;47.664;9.166;2023-05-16T13:40:15;101290.58;;;14.16;77.07
18755;BME280;35061;47.664;9.166;2023-05-16T13:42:43;101292.45;;;14.19;77.23